Saiq, Oman
Current Conditions -  °F | °C
As of 7:50 AM on Sunday 23 Nov 2014 (Local Time) from OOMS Reporting Station
Clear Clear  
Wind Chill: 75°   Ceiling: Unl
Heat Index: 75°   Visibility: 5mi
Dew Point: 59°   Wind: 0mph
Humidity: 57%   Direction: NA
Pressure: 29.97"   Gusts: NA
Location:  23.07°N, 57.63°E
Report Text: OOMS 230350Z 00000KT 8000 NSC 24/15 Q1015 NOSIG
Loading
Personal Weather Stations






























Interactive Weather Map New forecast layout! Learn more

10-Day Weather Forecast

Advertisements
Track Severe Weather on mobile